createdAt,value
2022-08-12T00:00:45.504Z,13.77
2022-08-12T00:02:03.198Z,13.72
2022-08-12T00:02:46.539Z,13.71
2022-08-12T00:03:45.469Z,13.71
2022-08-12T00:04:45.449Z,13.67
2022-08-12T00:06:01.730Z,13.65
2022-08-12T00:06:46.447Z,13.62
2022-08-12T00:07:45.454Z,13.59
2022-08-12T00:08:45.417Z,13.53
2022-08-12T00:09:45.400Z,13.47
2022-08-12T00:10:45.391Z,13.42
2022-08-12T00:11:45.370Z,13.35
2022-08-12T00:12:45.388Z,13.31
2022-08-12T00:13:45.339Z,13.27
2022-08-12T00:14:45.351Z,13.22
2022-08-12T00:15:45.330Z,13.19
2022-08-12T00:16:45.320Z,13.18
2022-08-12T00:17:45.332Z,13.16
2022-08-12T00:18:45.301Z,13.15
2022-08-12T00:19:45.271Z,13.15
2022-08-12T00:20:45.276Z,13.12
2022-08-12T00:21:45.255Z,13.09
2022-08-12T00:22:45.276Z,13.09
2022-08-12T00:23:45.225Z,13.09
2022-08-12T00:24:45.225Z,13.11
2022-08-12T00:25:51.276Z,13.09
2022-08-12T00:26:46.220Z,13.08
2022-08-12T00:27:45.217Z,13.05
2022-08-12T00:28:45.182Z,13.05
2022-08-12T00:29:47.930Z,13.04
2022-08-12T00:30:45.156Z,13.03
2022-08-12T00:31:45.139Z,13.00
2022-08-12T00:32:56.560Z,12.95
2022-08-12T00:33:52.271Z,12.93
2022-08-12T00:34:46.146Z,12.93
2022-08-12T00:35:45.118Z,12.86
2022-08-12T00:36:45.144Z,12.80
2022-08-12T00:37:45.072Z,12.73
2022-08-12T00:38:45.090Z,12.68
2022-08-12T00:39:45.115Z,12.62
2022-08-12T00:40:45.039Z,12.58
2022-08-12T00:41:45.032Z,12.54
2022-08-12T00:42:45.013Z,12.46
2022-08-12T00:43:45.038Z,12.43
2022-08-12T00:44:44.998Z,12.42
2022-08-12T00:45:44.997Z,12.40
2022-08-12T00:46:44.969Z,12.37
2022-08-12T00:47:44.990Z,12.31
2022-08-12T00:48:44.955Z,12.28
2022-08-12T00:49:44.946Z,12.27
2022-08-12T00:50:45.930Z,12.27
2022-08-12T00:51:44.916Z,12.22
2022-08-12T00:52:44.962Z,12.22
2022-08-12T00:53:44.884Z,12.22
2022-08-12T00:54:44.871Z,12.22
2022-08-12T00:55:44.864Z,12.25
2022-08-12T00:56:44.855Z,12.29
2022-08-12T00:57:44.895Z,12.32
2022-08-12T00:58:44.845Z,12.36
2022-08-12T00:59:44.824Z,12.37
2022-08-12T01:00:44.837Z,12.40
2022-08-12T01:02:11.412Z,12.42
2022-08-12T01:02:45.821Z,12.39
2022-08-12T01:03:44.775Z,12.39
2022-08-12T01:04:44.767Z,12.39
2022-08-12T01:05:44.754Z,12.36
2022-08-12T01:06:44.736Z,12.31
2022-08-12T01:07:44.768Z,12.27
2022-08-12T01:08:44.713Z,12.25
2022-08-12T01:09:44.703Z,12.25
2022-08-12T01:10:44.702Z,12.27
2022-08-12T01:11:44.695Z,12.25
2022-08-12T01:12:44.673Z,12.25
2022-08-12T01:13:44.695Z,12.22
2022-08-12T01:14:44.660Z,12.21
2022-08-12T01:15:44.638Z,12.18
2022-08-12T01:16:44.627Z,12.17
2022-08-12T01:17:44.624Z,12.18
2022-08-12T01:18:44.648Z,12.17
2022-08-12T01:19:44.581Z,12.18
2022-08-12T01:20:44.582Z,12.20
2022-08-12T01:21:44.585Z,12.20
2022-08-12T01:22:44.595Z,12.18
2022-08-12T01:23:44.545Z,12.20
2022-08-12T01:24:44.537Z,12.20
2022-08-12T01:25:55.568Z,12.20
2022-08-12T01:26:45.517Z,12.20
2022-08-12T01:27:44.491Z,12.18
2022-08-12T01:28:44.529Z,12.15
2022-08-12T01:29:44.460Z,12.15
2022-08-12T01:30:44.469Z,12.13
2022-08-12T01:31:44.455Z,12.09
2022-08-12T01:32:44.442Z,12.09
2022-08-12T01:33:44.459Z,12.06
2022-08-12T01:34:44.409Z,12.06
2022-08-12T01:35:44.393Z,12.03
2022-08-12T01:36:45.382Z,12.00
2022-08-12T01:37:44.372Z,11.97
2022-08-12T01:38:44.400Z,11.97
2022-08-12T01:40:31.677Z,11.91
2022-08-12T01:40:47.182Z,11.83
2022-08-12T01:41:44.339Z,11.80
2022-08-12T01:42:45.324Z,11.78
2022-08-12T01:43:44.339Z,11.78
2022-08-12T01:44:44.303Z,11.77
2022-08-12T01:45:44.297Z,11.78
2022-08-12T01:46:44.285Z,11.77
2022-08-12T01:47:44.263Z,11.75
2022-08-12T01:48:44.285Z,11.73
2022-08-12T01:49:44.251Z,11.73
2022-08-12T01:50:44.232Z,11.73
2022-08-12T01:52:21.869Z,11.72
2022-08-12T01:52:45.200Z,11.70
2022-08-12T01:53:50.416Z,11.68
2022-08-12T01:54:45.182Z,11.62
2022-08-12T01:55:44.173Z,11.59
2022-08-12T01:56:44.165Z,11.54
2022-08-12T01:57:58.948Z,11.55
2022-08-12T01:58:45.170Z,11.55
2022-08-12T01:59:44.129Z,11.60
2022-08-12T02:00:54.960Z,11.62
2022-08-12T02:01:45.215Z,11.65
2022-08-12T02:02:44.088Z,11.59
2022-08-12T02:03:44.115Z,11.57
2022-08-12T02:04:44.065Z,11.57
2022-08-12T02:05:44.076Z,11.54
2022-08-12T02:06:44.046Z,11.54
2022-08-12T02:07:44.040Z,11.54
2022-08-12T02:08:44.058Z,11.52
2022-08-12T02:09:44.015Z,11.57
2022-08-12T02:10:51.397Z,11.62
2022-08-12T02:11:44.987Z,11.62
2022-08-12T02:12:43.973Z,11.62
2022-08-12T02:13:49.478Z,11.57
2022-08-12T02:14:44.949Z,11.54
2022-08-12T02:15:43.934Z,11.50
2022-08-12T02:16:43.916Z,11.44
2022-08-12T02:17:55.522Z,11.45
2022-08-12T02:18:44.930Z,11.43
2022-08-12T02:19:43.904Z,11.35
2022-08-12T02:20:52.665Z,11.30
2022-08-12T02:21:44.868Z,11.26
2022-08-12T02:22:43.860Z,11.27
2022-08-12T02:23:43.891Z,11.23
2022-08-12T02:24:43.834Z,11.25
2022-08-12T02:25:43.824Z,11.26
2022-08-12T02:26:43.818Z,11.23
2022-08-12T02:27:43.797Z,11.23
2022-08-12T02:28:43.828Z,11.22
2022-08-12T02:29:43.782Z,11.25
2022-08-12T02:30:43.761Z,11.27
2022-08-12T02:31:43.759Z,11.32
2022-08-12T02:32:43.740Z,11.30
2022-08-12T02:33:43.768Z,11.26
2022-08-12T02:34:43.718Z,11.26
2022-08-12T02:35:43.704Z,11.30
2022-08-12T02:36:43.692Z,11.30
2022-08-12T02:37:43.686Z,11.30
2022-08-12T02:38:43.704Z,11.37
2022-08-12T02:39:43.704Z,11.35
2022-08-12T02:40:43.654Z,11.32
2022-08-12T02:41:43.648Z,11.32
2022-08-12T02:42:43.628Z,11.30
2022-08-12T02:43:43.659Z,11.27
2022-08-12T02:44:43.598Z,11.25
2022-08-12T02:45:43.604Z,11.23
2022-08-12T02:46:43.582Z,11.23
2022-08-12T02:47:58.549Z,11.26
2022-08-12T02:48:44.593Z,11.30
2022-08-12T02:49:43.548Z,11.40
2022-08-12T02:50:43.565Z,11.47
2022-08-12T02:51:43.530Z,11.48
2022-08-12T02:52:43.517Z,11.45
2022-08-12T02:53:43.504Z,11.44
2022-08-12T02:54:43.517Z,11.40
2022-08-12T02:55:43.468Z,11.36
2022-08-12T02:56:48.047Z,11.32
2022-08-12T02:57:44.462Z,11.26
2022-08-12T02:58:45.427Z,11.18
2022-08-12T02:59:43.451Z,11.14
2022-08-12T03:00:43.531Z,11.08
2022-08-12T03:01:47.704Z,11.04
2022-08-12T03:02:43.398Z,10.99
2022-08-12T03:03:43.399Z,10.96
2022-08-12T03:04:44.156Z,10.93
2022-08-12T03:05:44.156Z,10.92
2022-08-12T03:06:43.354Z,10.93
2022-08-12T03:07:59.239Z,10.96
2022-08-12T03:08:46.057Z,10.93
2022-08-12T03:10:04.739Z,10.90
2022-08-12T03:10:44.308Z,10.86
2022-08-12T03:11:48.774Z,10.86
2022-08-12T03:12:49.890Z,10.82
2022-08-12T03:13:44.269Z,10.84
2022-08-12T03:14:43.290Z,10.82
2022-08-12T03:15:43.254Z,10.86
2022-08-12T03:16:43.238Z,10.84
2022-08-12T03:17:43.231Z,10.81
2022-08-12T03:18:45.798Z,10.79
2022-08-12T03:20:10.513Z,10.79
2022-08-12T03:20:44.182Z,10.87
2022-08-12T03:22:05.690Z,10.94
2022-08-12T03:22:44.159Z,11.04
2022-08-12T03:23:43.165Z,11.07
2022-08-12T03:24:43.175Z,11.10
2022-08-12T03:25:43.139Z,11.15
2022-08-12T03:26:43.134Z,11.14
2022-08-12T03:27:43.115Z,11.11
2022-08-12T03:28:43.101Z,11.10
2022-08-12T03:29:45.178Z,11.12
2022-08-12T03:30:44.086Z,11.14
2022-08-12T03:31:43.077Z,11.15
2022-08-12T03:32:43.051Z,11.17
2022-08-12T03:33:43.048Z,11.17
2022-08-12T03:34:43.048Z,11.14
2022-08-12T03:35:43.019Z,11.17
2022-08-12T03:36:43.028Z,11.15
2022-08-12T03:37:42.994Z,11.22
2022-08-12T03:38:42.974Z,11.32
2022-08-12T03:39:43.041Z,11.45
2022-08-12T03:40:42.971Z,11.52
2022-08-12T03:41:42.954Z,11.54
2022-08-12T03:42:43.040Z,11.66
2022-08-12T03:43:42.954Z,11.72
2022-08-12T03:44:42.912Z,11.73
2022-08-12T03:45:52.338Z,11.77
2022-08-12T03:46:43.885Z,11.77
2022-08-12T03:47:42.881Z,11.83
2022-08-12T03:48:42.863Z,11.90
2022-08-12T03:49:42.899Z,12.00
2022-08-12T03:50:42.851Z,12.00
2022-08-12T03:51:42.840Z,12.10
2022-08-12T03:52:42.815Z,12.13
2022-08-12T03:53:42.816Z,12.17
2022-08-12T03:54:42.837Z,12.18
2022-08-12T03:55:42.796Z,12.20
2022-08-12T03:56:42.781Z,12.24
2022-08-12T03:57:42.774Z,12.35
2022-08-12T03:58:43.757Z,12.43
2022-08-12T03:59:42.763Z,12.46
2022-08-12T04:00:42.805Z,12.50
2022-08-12T04:01:42.727Z,12.53
2022-08-12T04:02:42.707Z,12.53
2022-08-12T04:03:42.739Z,12.49
2022-08-12T04:04:42.679Z,12.47
2022-08-12T04:05:56.092Z,12.46
2022-08-12T04:06:43.666Z,12.45
2022-08-12T04:07:51.336Z,12.43
2022-08-12T04:08:43.665Z,12.39
2022-08-12T04:09:42.641Z,12.36
2022-08-12T04:10:42.623Z,12.35
2022-08-12T04:11:47.092Z,12.32
2022-08-12T04:12:42.680Z,12.31
2022-08-12T04:13:42.632Z,12.28
2022-08-12T04:14:42.569Z,12.31
2022-08-12T04:15:42.559Z,12.29
2022-08-12T04:16:42.543Z,12.32
2022-08-12T04:18:06.961Z,12.32
2022-08-12T04:18:43.566Z,12.35
2022-08-12T04:19:42.507Z,12.37
2022-08-12T04:20:42.484Z,12.39
2022-08-12T04:22:02.793Z,12.39
2022-08-12T04:22:43.463Z,12.43
2022-08-12T04:23:47.787Z,12.50
2022-08-12T04:24:43.458Z,12.61
2022-08-12T04:25:43.460Z,12.75
2022-08-12T04:26:42.426Z,12.94
2022-08-12T04:27:42.419Z,13.19
2022-08-12T04:28:42.442Z,13.47
2022-08-12T04:30:29.338Z,13.74
2022-08-12T04:30:43.386Z,14.00
2022-08-12T04:31:42.371Z,14.25
2022-08-12T04:32:44.440Z,14.50
2022-08-12T04:33:42.410Z,14.72
2022-08-12T04:34:42.330Z,14.96
2022-08-12T04:35:42.336Z,15.21
2022-08-12T04:36:42.313Z,15.44
2022-08-12T04:37:59.881Z,15.72
2022-08-12T04:38:43.331Z,16.00
2022-08-12T04:39:42.324Z,16.31
2022-08-12T04:40:42.284Z,16.53
2022-08-12T04:41:56.078Z,16.78
2022-08-12T04:42:43.251Z,16.93
2022-08-12T04:43:59.826Z,17.15
2022-08-12T04:44:43.231Z,17.36
2022-08-12T04:45:42.222Z,17.49
2022-08-12T04:46:42.198Z,17.67
2022-08-12T04:47:42.191Z,17.87
2022-08-12T04:48:42.172Z,18.11
2022-08-12T04:49:42.201Z,18.28
2022-08-12T04:50:42.149Z,18.44
2022-08-12T04:51:42.144Z,18.44
2022-08-12T04:52:43.298Z,18.60
2022-08-12T04:53:42.125Z,18.77
2022-08-12T04:54:42.129Z,18.98
2022-08-12T04:55:42.130Z,19.11
2022-08-12T04:56:42.101Z,19.21
2022-08-12T04:57:42.066Z,19.26
2022-08-12T04:58:42.057Z,19.40
2022-08-12T04:59:46.567Z,19.55
2022-08-12T05:00:43.036Z,19.58
2022-08-12T05:01:42.034Z,19.58
2022-08-12T05:02:42.279Z,19.45
2022-08-12T05:03:46.128Z,19.48
2022-08-12T05:04:43.012Z,19.48
2022-08-12T05:05:41.987Z,19.49
2022-08-12T05:06:41.972Z,19.59
2022-08-12T05:07:54.140Z,19.66
2022-08-12T05:08:42.940Z,19.58
2022-08-12T05:10:00.441Z,19.62
2022-08-12T05:10:42.922Z,19.69
2022-08-12T05:11:54.250Z,19.82
2022-08-12T05:12:43.121Z,19.85
2022-08-12T05:13:41.887Z,19.92
2022-08-12T05:14:41.919Z,20.18
2022-08-12T05:16:02.578Z,20.29
2022-08-12T05:16:42.849Z,20.28
2022-08-12T05:17:41.863Z,20.04
2022-08-12T05:18:45.865Z,20.22
2022-08-12T05:19:43.408Z,20.36
2022-08-12T05:20:41.805Z,20.44
2022-08-12T05:21:41.896Z,20.51
2022-08-12T05:22:41.991Z,20.51
2022-08-12T05:23:41.768Z,20.62
2022-08-12T05:24:41.794Z,20.65
2022-08-12T05:25:41.755Z,20.77
2022-08-12T05:26:41.754Z,20.99
2022-08-12T05:27:55.187Z,21.02
2022-08-12T05:28:42.724Z,21.27
2022-08-12T05:30:06.721Z,21.50
2022-08-12T05:30:42.842Z,21.60
2022-08-12T05:31:47.693Z,21.77
2022-08-12T05:32:42.729Z,21.83
2022-08-12T05:33:41.664Z,21.98
2022-08-12T05:34:41.680Z,22.00
2022-08-12T05:35:41.640Z,21.96
2022-08-12T05:36:41.619Z,22.08
2022-08-12T05:37:41.608Z,21.99
2022-08-12T05:38:41.598Z,22.06
2022-08-12T05:39:41.690Z,22.06
2022-08-12T05:40:41.560Z,22.22
2022-08-12T05:41:41.592Z,22.26
2022-08-12T05:42:41.615Z,21.93
2022-08-12T05:43:41.548Z,21.92
2022-08-12T05:44:41.578Z,21.52
2022-08-12T05:45:44.703Z,21.54
2022-08-12T05:46:41.522Z,21.57
2022-08-12T05:47:53.732Z,21.99
2022-08-12T05:48:42.489Z,22.08
2022-08-12T05:49:41.525Z,22.33
2022-08-12T05:50:41.478Z,22.45
2022-08-12T05:51:41.896Z,22.69
2022-08-12T05:52:41.600Z,22.78
2022-08-12T05:53:41.436Z,23.02
2022-08-12T05:54:57.165Z,22.90
2022-08-12T05:55:42.411Z,22.66
2022-08-12T05:56:41.549Z,22.54
2022-08-12T05:57:41.395Z,22.38
2022-08-12T05:58:41.377Z,22.35
2022-08-12T05:59:41.371Z,22.33
2022-08-12T06:00:41.393Z,22.35
2022-08-12T06:02:12.666Z,22.51
2022-08-12T06:02:42.391Z,22.66
2022-08-12T06:03:41.315Z,22.57
2022-08-12T06:04:41.313Z,22.69
2022-08-12T06:05:43.128Z,22.65
2022-08-12T06:06:42.307Z,22.75
2022-08-12T06:08:01.438Z,23.09
2022-08-12T06:08:42.276Z,23.39
2022-08-12T06:09:41.316Z,23.32
2022-08-12T06:10:41.236Z,23.15
2022-08-12T06:11:41.225Z,22.99
2022-08-12T06:12:42.365Z,23.24
2022-08-12T06:13:53.669Z,23.56
2022-08-12T06:14:42.232Z,23.58
2022-08-12T06:15:41.182Z,23.99
2022-08-12T06:16:41.152Z,24.35
2022-08-12T06:17:41.153Z,24.61
2022-08-12T06:18:41.150Z,24.53
2022-08-12T06:20:27.029Z,24.58
2022-08-12T06:20:42.138Z,24.68
2022-08-12T06:21:41.127Z,24.51
2022-08-12T06:22:41.270Z,24.30
2022-08-12T06:23:42.872Z,24.11
2022-08-12T06:24:41.137Z,24.11
2022-08-12T06:25:41.078Z,24.06
2022-08-12T06:26:41.054Z,24.29
2022-08-12T06:27:41.063Z,24.35
2022-08-12T06:28:42.045Z,24.39
2022-08-12T06:30:09.663Z,24.58
2022-08-12T06:30:42.025Z,24.84
2022-08-12T06:31:41.008Z,25.16
2022-08-12T06:32:52.048Z,25.01
2022-08-12T06:33:55.427Z,24.73
2022-08-12T06:35:27.249Z,24.77
2022-08-12T06:35:48.703Z,24.58
2022-08-12T06:36:42.903Z,24.50
2022-08-12T06:37:40.942Z,24.81
2022-08-12T06:38:40.925Z,25.16
2022-08-12T06:39:40.971Z,25.07
2022-08-12T06:40:40.919Z,25.08
2022-08-12T06:41:40.888Z,25.08
2022-08-12T06:42:41.887Z,25.08
2022-08-12T06:44:06.865Z,25.14
2022-08-12T06:44:41.912Z,25.11
2022-08-12T06:45:46.089Z,24.96
2022-08-12T06:46:41.841Z,24.92
2022-08-12T06:47:40.809Z,24.96
2022-08-12T06:48:40.856Z,24.99
2022-08-12T06:49:40.797Z,25.14
2022-08-12T06:50:40.808Z,25.46
2022-08-12T06:51:40.763Z,25.47
2022-08-12T06:52:40.873Z,25.40
2022-08-12T06:53:40.754Z,25.33
2022-08-12T06:54:40.732Z,25.44
2022-08-12T06:55:57.636Z,25.65
2022-08-12T06:58:07.301Z,25.50
2022-08-12T06:58:41.697Z,25.68
2022-08-12T06:59:40.674Z,25.98
2022-08-12T07:00:40.759Z,25.91
2022-08-12T07:01:40.658Z,25.72
2022-08-12T07:02:41.960Z,25.60
2022-08-12T07:03:40.637Z,25.65
2022-08-12T07:04:40.759Z,25.72
2022-08-12T07:05:40.633Z,25.88
2022-08-12T07:06:40.646Z,25.69
2022-08-12T07:07:40.588Z,25.84
2022-08-12T07:08:40.593Z,26.22
2022-08-12T07:10:01.193Z,26.52
2022-08-12T07:10:41.617Z,26.66
2022-08-12T07:11:40.553Z,26.78
2022-08-12T07:12:40.688Z,27.26
2022-08-12T07:14:02.605Z,27.30
2022-08-12T07:14:43.735Z,26.88
2022-08-12T07:15:41.530Z,26.70
2022-08-12T07:16:40.504Z,26.53
2022-08-12T07:17:40.484Z,26.37
2022-08-12T07:18:40.477Z,25.50
2022-08-12T07:19:45.123Z,24.76
2022-08-12T07:20:52.364Z,24.23
2022-08-12T07:22:00.084Z,23.84
2022-08-12T07:22:41.585Z,23.58
2022-08-12T07:23:40.412Z,23.71
2022-08-12T07:24:40.427Z,24.06
2022-08-12T07:25:41.511Z,23.84
2022-08-12T07:26:40.371Z,23.56
2022-08-12T07:27:40.370Z,23.66
2022-08-12T07:28:40.353Z,23.65
2022-08-12T07:29:57.865Z,23.74
2022-08-12T07:30:41.376Z,23.87
2022-08-12T07:31:40.329Z,23.87
2022-08-12T07:32:40.422Z,23.73
2022-08-12T07:33:40.291Z,23.80
2022-08-12T07:34:40.288Z,24.24
2022-08-12T07:35:40.328Z,24.40
2022-08-12T07:36:40.283Z,24.35
2022-08-12T07:37:40.256Z,24.40
2022-08-12T07:38:40.264Z,24.42
2022-08-12T07:39:49.921Z,24.38
2022-08-12T07:40:41.256Z,24.86
2022-08-12T07:41:40.225Z,25.47
2022-08-12T07:42:40.436Z,25.47
2022-08-12T07:43:40.195Z,25.59
2022-08-12T07:44:40.171Z,25.46
2022-08-12T07:45:40.189Z,25.38
2022-08-12T07:46:40.155Z,25.33
2022-08-12T07:47:40.129Z,25.36
2022-08-12T07:48:40.175Z,26.53
2022-08-12T07:50:03.754Z,27.52
2022-08-12T07:50:41.147Z,28.49
2022-08-12T07:51:40.096Z,28.86
2022-08-12T07:52:40.305Z,29.19
2022-08-12T07:53:57.524Z,29.27
2022-08-12T07:54:41.068Z,29.22
2022-08-12T07:55:40.122Z,29.36
2022-08-12T07:56:40.051Z,29.29
2022-08-12T07:57:40.041Z,29.69
2022-08-12T07:58:41.986Z,29.42
2022-08-12T07:59:41.004Z,29.53
2022-08-12T08:00:39.991Z,29.60
2022-08-12T08:01:40.062Z,29.08
2022-08-12T08:02:40.096Z,28.93
2022-08-12T08:03:47.545Z,28.98
2022-08-12T08:04:40.970Z,28.93
2022-08-12T08:05:39.932Z,29.19
2022-08-12T08:06:39.976Z,29.51
2022-08-12T08:07:39.916Z,29.82
2022-08-12T08:08:39.925Z,29.69
2022-08-12T08:09:39.897Z,29.87
2022-08-12T08:10:39.874Z,30.34
2022-08-12T08:11:39.923Z,29.71
2022-08-12T08:12:39.983Z,29.50
2022-08-12T08:13:39.864Z,29.61
2022-08-12T08:14:39.846Z,29.59
2022-08-12T08:16:01.936Z,30.30
2022-08-12T08:16:40.866Z,29.93
2022-08-12T08:17:39.854Z,30.06
2022-08-12T08:18:39.807Z,29.69
2022-08-12T08:20:03.152Z,29.65
2022-08-12T08:20:40.771Z,29.27
2022-08-12T08:21:39.801Z,29.49
2022-08-12T08:22:41.675Z,29.61
2022-08-12T08:23:39.758Z,29.98
2022-08-12T08:24:39.738Z,30.10
2022-08-12T08:25:39.758Z,30.44
2022-08-12T08:26:39.752Z,30.19
2022-08-12T08:27:39.716Z,29.68
2022-08-12T08:28:39.736Z,29.57
2022-08-12T08:29:39.696Z,29.65
2022-08-12T08:30:39.678Z,29.81
2022-08-12T08:31:40.680Z,30.40
2022-08-12T08:32:39.810Z,30.10
2022-08-12T08:34:09.193Z,29.78
2022-08-12T08:34:53.630Z,29.71
2022-08-12T08:35:46.466Z,29.42
2022-08-12T08:36:40.635Z,29.47
2022-08-12T08:37:39.607Z,29.65
2022-08-12T08:38:39.594Z,29.51
2022-08-12T08:39:39.674Z,29.36
2022-08-12T08:40:39.546Z,29.41
2022-08-12T08:42:16.226Z,29.75
2022-08-12T08:42:40.845Z,30.24
2022-08-12T08:43:43.195Z,30.32
2022-08-12T08:44:40.511Z,29.98
2022-08-12T08:45:39.517Z,30.15
2022-08-12T08:46:39.546Z,29.84
2022-08-12T08:47:39.508Z,28.96
2022-08-12T08:48:39.479Z,28.78
2022-08-12T08:49:39.483Z,28.63
2022-08-12T08:50:39.471Z,28.39
2022-08-12T08:51:39.481Z,27.89
2022-08-12T08:52:41.039Z,27.55
2022-08-12T08:53:39.425Z,27.92
2022-08-12T08:54:40.382Z,28.02
2022-08-12T08:56:03.586Z,28.82
2022-08-12T08:56:40.434Z,29.50
2022-08-12T08:57:43.484Z,29.50
2022-08-12T08:58:40.380Z,28.41
2022-08-12T08:59:39.391Z,27.68
2022-08-12T09:00:39.369Z,27.27
2022-08-12T09:01:39.391Z,27.54
2022-08-12T09:02:39.535Z,27.98
2022-08-12T09:05:09.528Z,28.91
2022-08-12T09:05:12.984Z,28.86
2022-08-12T09:06:01.797Z,28.70
2022-08-12T09:06:41.939Z,28.98
2022-08-12T09:07:43.962Z,29.26
2022-08-12T09:08:40.316Z,29.59
2022-08-12T09:10:40.721Z,30.25
2022-08-12T09:12:11.536Z,29.86
2022-08-12T09:12:42.284Z,29.93
2022-08-12T09:14:40.221Z,30.57
2022-08-12T09:15:41.575Z,31.15
2022-08-12T09:16:42.756Z,31.49
2022-08-12T09:17:52.390Z,31.61
2022-08-12T09:18:41.089Z,31.36
2022-08-12T09:19:39.167Z,30.51
2022-08-12T09:20:39.138Z,30.47
2022-08-12T09:21:54.881Z,31.07
2022-08-12T09:22:40.170Z,31.12
2022-08-12T09:23:59.454Z,31.40
2022-08-12T09:24:40.107Z,31.89
2022-08-12T09:25:39.105Z,30.30
2022-08-12T09:26:46.337Z,29.42
2022-08-12T09:27:57.993Z,28.66
2022-08-12T09:28:40.044Z,28.25
2022-08-12T09:30:09.953Z,27.89
2022-08-12T09:30:42.197Z,27.45
2022-08-12T09:32:03.264Z,27.17
2022-08-12T09:33:05.219Z,27.03
2022-08-12T09:34:27.351Z,27.18
2022-08-12T09:34:42.697Z,27.29
2022-08-12T09:35:42.795Z,27.52
2022-08-12T09:37:00.551Z,27.73
2022-08-12T09:37:55.188Z,27.64
2022-08-12T09:38:39.973Z,27.33
2022-08-12T09:40:05.625Z,26.96
2022-08-12T09:40:57.481Z,26.93
2022-08-12T09:42:34.217Z,26.89
2022-08-12T09:42:54.385Z,26.84
2022-08-12T09:43:53.352Z,26.89
2022-08-12T09:44:40.113Z,26.88
2022-08-12T09:46:06.328Z,26.92
2022-08-12T09:46:39.904Z,27.00
2022-08-12T09:47:38.898Z,27.21
2022-08-12T09:48:39.870Z,27.33
2022-08-12T09:49:42.500Z,27.54
2022-08-12T09:50:38.821Z,27.68
2022-08-12T09:51:44.346Z,27.82
2022-08-12T09:52:39.856Z,28.48
2022-08-12T09:53:39.773Z,28.82
2022-08-12T09:54:38.773Z,28.86
2022-08-12T09:56:06.349Z,28.76
2022-08-12T09:57:00.467Z,28.96
2022-08-12T09:58:44.465Z,29.16
2022-08-12T09:58:58.318Z,28.93
2022-08-12T10:00:16.084Z,29.36
2022-08-12T10:00:51.705Z,29.45
2022-08-12T10:02:39.857Z,29.41
2022-08-12T10:02:53.071Z,29.17
2022-08-12T10:04:03.398Z,29.31
2022-08-12T10:04:45.688Z,29.79
2022-08-12T10:06:20.045Z,29.98
2022-08-12T10:06:54.255Z,29.82
2022-08-12T10:07:40.912Z,30.23
2022-08-12T10:08:38.692Z,29.75
2022-08-12T10:09:57.348Z,29.65
2022-08-12T10:10:42.557Z,30.19
2022-08-12T10:12:10.307Z,29.41
2022-08-12T10:12:39.574Z,29.44
2022-08-12T10:13:41.787Z,30.30
2022-08-12T10:14:38.550Z,30.91
2022-08-12T10:16:02.844Z,30.91
2022-08-12T10:16:39.732Z,30.24
2022-08-12T10:18:05.812Z,30.18
2022-08-12T10:18:52.250Z,30.62
2022-08-12T10:19:39.521Z,30.27
2022-08-12T10:20:38.485Z,29.10
2022-08-12T10:21:38.501Z,28.27
2022-08-12T10:22:40.851Z,28.72
2022-08-12T10:23:39.962Z,29.90
2022-08-12T10:24:38.443Z,30.30
2022-08-12T10:26:34.566Z,30.92
2022-08-12T10:26:39.654Z,31.64
2022-08-12T10:27:39.388Z,31.64
2022-08-12T10:28:39.473Z,31.37
2022-08-12T10:30:38.976Z,32.16
2022-08-12T10:30:46.802Z,32.16
2022-08-12T10:32:19.459Z,32.48
2022-08-12T10:32:43.862Z,31.65
2022-08-12T10:33:55.003Z,32.23
2022-08-12T10:34:39.360Z,32.15
2022-08-12T10:35:39.343Z,32.23
2022-08-12T10:36:42.645Z,32.73
2022-08-12T10:38:34.303Z,31.99
2022-08-12T10:38:41.439Z,30.88
2022-08-12T10:40:01.780Z,29.82
2022-08-12T10:40:39.410Z,29.34
2022-08-12T10:41:57.673Z,30.08
2022-08-12T10:42:39.290Z,31.34
2022-08-12T10:43:55.116Z,32.30
2022-08-12T10:44:39.255Z,33.23
2022-08-12T10:45:38.772Z,33.05
2022-08-12T10:46:38.245Z,32.85
2022-08-12T10:48:19.051Z,32.93
2022-08-12T10:48:39.259Z,32.43
2022-08-12T10:50:03.731Z,32.68
2022-08-12T10:50:58.665Z,31.70
2022-08-12T10:52:03.816Z,31.76
2022-08-12T10:52:39.179Z,32.53
2022-08-12T10:53:44.143Z,32.34
2022-08-12T10:54:39.152Z,31.74
2022-08-12T10:55:38.149Z,30.83
2022-08-12T10:56:38.136Z,31.56
2022-08-12T10:58:13.545Z,31.54
2022-08-12T10:58:39.144Z,31.97
2022-08-12T11:00:31.019Z,31.24
2022-08-12T11:00:55.272Z,30.09
2022-08-12T11:04:17.793Z,29.69
2022-08-12T11:04:18.804Z,30.70
2022-08-12T11:04:28.131Z,30.46
2022-08-12T11:04:49.253Z,30.10
2022-08-12T11:07:08.650Z,31.43
2022-08-12T11:07:10.117Z,30.23
2022-08-12T11:08:34.827Z,32.04
2022-08-12T11:08:43.203Z,32.55
2022-08-12T11:09:41.990Z,33.17
2022-08-12T11:10:39.068Z,33.31
2022-08-12T11:12:36.188Z,33.64
2022-08-12T11:12:58.988Z,34.08
2022-08-12T11:13:46.012Z,33.05
2022-08-12T11:14:49.617Z,31.58
2022-08-12T11:16:03.638Z,30.73
2022-08-12T11:16:38.960Z,30.63
2022-08-12T11:17:52.093Z,31.24
2022-08-12T11:18:38.916Z,31.99
2022-08-12T11:19:37.954Z,32.53
2022-08-12T11:20:37.892Z,32.97
2022-08-12T11:21:57.562Z,33.79
2022-08-12T11:22:38.895Z,34.13
2022-08-12T11:23:37.887Z,34.11
2022-08-12T11:24:37.884Z,33.61
2022-08-12T11:25:57.949Z,33.80
2022-08-12T11:26:38.862Z,33.68
2022-08-12T11:27:37.876Z,33.67
2022-08-12T11:28:38.659Z,33.90
2022-08-12T11:30:01.761Z,33.80
2022-08-12T11:30:38.821Z,33.79
2022-08-12T11:31:56.091Z,33.24
2022-08-12T11:32:39.556Z,33.52
2022-08-12T11:34:05.666Z,33.62
2022-08-12T11:34:53.245Z,33.79
2022-08-12T11:35:38.749Z,33.23
2022-08-12T11:36:39.495Z,33.47
2022-08-12T11:37:37.852Z,32.86
2022-08-12T11:38:38.693Z,32.85
2022-08-12T11:40:03.471Z,33.02
2022-08-12T11:40:42.706Z,33.62
2022-08-12T11:41:37.663Z,32.71
2022-08-12T11:42:46.078Z,32.36
2022-08-12T11:43:50.358Z,31.92
2022-08-12T11:44:43.444Z,32.56
2022-08-12T11:45:38.914Z,32.87
2022-08-12T11:46:37.620Z,32.67
2022-08-12T11:47:40.330Z,31.89
2022-08-12T11:48:51.311Z,32.86
2022-08-12T11:49:38.587Z,33.47
2022-08-12T11:50:42.127Z,33.73
2022-08-12T11:51:39.755Z,33.45
2022-08-12T11:52:56.448Z,33.40
2022-08-12T11:53:59.000Z,33.05
2022-08-12T11:54:38.549Z,32.87
2022-08-12T11:55:46.806Z,32.29
2022-08-12T11:56:41.296Z,31.44
2022-08-12T11:58:07.163Z,30.70
2022-08-12T12:00:34.594Z,30.34
2022-08-12T12:02:01.678Z,29.24
2022-08-12T12:02:38.499Z,29.02
2022-08-12T12:03:40.498Z,29.17
2022-08-12T12:04:38.468Z,30.47
2022-08-12T12:05:42.057Z,31.34
2022-08-12T12:06:38.440Z,32.08
2022-08-12T12:08:38.197Z,32.58
2022-08-12T12:08:42.696Z,32.96
2022-08-12T12:09:52.295Z,32.87
2022-08-12T12:10:38.444Z,32.48
2022-08-12T12:11:48.685Z,32.70
2022-08-12T12:12:38.363Z,32.46
2022-08-12T12:14:06.595Z,31.70
2022-08-12T12:14:39.180Z,31.25
2022-08-12T12:15:41.100Z,32.04
2022-08-12T12:16:39.557Z,32.67
2022-08-12T12:17:38.526Z,32.74
2022-08-12T12:18:37.299Z,32.87
2022-08-12T12:19:45.444Z,32.97
2022-08-12T12:20:38.323Z,32.64
2022-08-12T12:21:47.058Z,33.12
2022-08-12T12:22:38.252Z,33.28
2022-08-12T12:23:37.264Z,33.23
2022-08-12T12:24:37.286Z,33.09
2022-08-12T12:25:59.703Z,32.95
2022-08-12T12:26:38.521Z,32.95
2022-08-12T12:28:02.617Z,33.12
2022-08-12T12:28:39.659Z,32.45
2022-08-12T12:30:18.662Z,33.15
2022-08-12T12:30:38.217Z,33.69
2022-08-12T12:32:10.139Z,33.76
2022-08-12T12:32:38.197Z,33.83
2022-08-12T12:33:58.447Z,33.84
2022-08-12T12:34:38.207Z,33.69
2022-08-12T12:36:06.599Z,32.68
2022-08-12T12:36:38.189Z,33.05
2022-08-12T12:38:04.910Z,33.45
2022-08-12T12:38:38.130Z,33.59
2022-08-12T12:39:55.139Z,34.06
2022-08-12T12:40:39.584Z,34.70
2022-08-12T12:42:44.331Z,34.78
2022-08-12T12:42:44.675Z,34.62
2022-08-12T12:43:43.473Z,35.14
2022-08-12T12:44:41.912Z,35.27
2022-08-12T12:45:38.107Z,33.90
2022-08-12T12:46:37.051Z,34.20
2022-08-12T12:47:37.230Z,34.64
2022-08-12T12:48:37.749Z,34.64
2022-08-12T12:49:38.020Z,34.25
2022-08-12T12:50:42.490Z,33.89
2022-08-12T12:52:02.005Z,34.75
2022-08-12T12:52:38.041Z,34.33
2022-08-12T12:54:06.088Z,34.51
2022-08-12T12:54:37.952Z,34.51
2022-08-12T12:55:36.989Z,33.58
2022-08-12T12:56:36.959Z,32.74
2022-08-12T12:58:00.780Z,32.03